createdAt,value
2018-04-08T00:00:44.926Z,4.00
2018-04-08T00:01:44.936Z,4.00
2018-04-08T00:02:44.944Z,4.00
2018-04-08T00:03:44.944Z,4.00
2018-04-08T00:04:44.946Z,4.00
2018-04-08T00:05:44.958Z,4.00
2018-04-08T00:06:44.955Z,4.00
2018-04-08T00:07:44.969Z,4.00
2018-04-08T00:08:44.975Z,4.00
2018-04-08T00:09:44.975Z,4.00
2018-04-08T00:10:44.977Z,4.00
2018-04-08T00:11:44.990Z,4.00
2018-04-08T00:12:44.989Z,8.00
2018-04-08T00:13:45.000Z,4.00
2018-04-08T00:14:44.999Z,4.00
2018-04-08T00:15:45.009Z,4.00
2018-04-08T00:16:45.845Z,4.00
2018-04-08T00:17:45.021Z,4.00
2018-04-08T00:18:45.021Z,4.00
2018-04-08T00:19:45.039Z,4.00
2018-04-08T00:20:45.052Z,4.00
2018-04-08T00:21:45.058Z,4.00
2018-04-08T00:22:45.052Z,4.00
2018-04-08T00:23:45.051Z,4.00
2018-04-08T00:24:45.058Z,4.00
2018-04-08T00:25:45.060Z,4.00
2018-04-08T00:26:45.066Z,4.00
2018-04-08T00:27:45.073Z,4.00
2018-04-08T00:28:45.077Z,4.00
2018-04-08T00:29:45.083Z,4.00
2018-04-08T00:30:45.088Z,4.00
2018-04-08T00:31:45.092Z,4.00
2018-04-08T00:32:45.099Z,4.00
2018-04-08T00:33:45.100Z,4.00
2018-04-08T00:34:45.111Z,4.00
2018-04-08T00:35:45.107Z,4.00
2018-04-08T00:36:45.123Z,4.00
2018-04-08T00:37:45.123Z,4.00
2018-04-08T00:38:45.130Z,4.00
2018-04-08T00:39:45.135Z,4.00
2018-04-08T00:40:45.141Z,4.00
2018-04-08T00:41:45.152Z,4.00
2018-04-08T00:42:45.154Z,4.00
2018-04-08T00:43:45.169Z,4.00
2018-04-08T00:44:45.170Z,4.00
2018-04-08T00:45:45.161Z,4.00
2018-04-08T00:46:45.203Z,4.00
2018-04-08T00:47:45.196Z,4.00
2018-04-08T00:48:45.180Z,4.00
2018-04-08T00:49:45.186Z,4.00
2018-04-08T00:50:45.193Z,4.00
2018-04-08T00:51:45.200Z,4.00
2018-04-08T00:52:45.202Z,4.00
2018-04-08T00:53:45.211Z,4.00
2018-04-08T00:54:45.874Z,4.00
2018-04-08T00:55:45.224Z,4.00
2018-04-08T00:56:45.221Z,4.00
2018-04-08T00:57:45.228Z,4.00
2018-04-08T00:58:45.252Z,4.00
2018-04-08T00:59:45.242Z,4.00
2018-04-08T01:00:45.242Z,4.00
2018-04-08T01:01:45.252Z,4.00
2018-04-08T01:02:45.255Z,4.00
2018-04-08T01:03:45.259Z,4.00
2018-04-08T01:04:45.271Z,4.00
2018-04-08T01:05:45.864Z,4.00
2018-04-08T01:06:45.272Z,4.00
2018-04-08T01:07:45.276Z,4.00
2018-04-08T01:08:45.290Z,4.00
2018-04-08T01:09:45.304Z,4.00
2018-04-08T01:10:45.293Z,4.00
2018-04-08T01:11:45.309Z,4.00
2018-04-08T01:12:45.302Z,4.00
2018-04-08T01:13:45.313Z,4.00
2018-04-08T01:14:45.318Z,4.00
2018-04-08T01:15:45.325Z,4.00
2018-04-08T01:16:45.326Z,4.00
2018-04-08T01:17:45.339Z,4.00
2018-04-08T01:18:45.341Z,4.00
2018-04-08T01:19:45.345Z,4.00
2018-04-08T01:20:45.350Z,4.00
2018-04-08T01:21:45.360Z,4.00
2018-04-08T01:22:45.354Z,4.00
2018-04-08T01:23:45.367Z,4.00
2018-04-08T01:24:45.368Z,4.00
2018-04-08T01:25:45.374Z,4.00
2018-04-08T01:26:45.382Z,4.00
2018-04-08T01:27:45.388Z,4.00
2018-04-08T01:28:45.399Z,4.00
2018-04-08T01:29:45.399Z,4.00
2018-04-08T01:30:45.405Z,4.00
2018-04-08T01:31:45.404Z,4.00
2018-04-08T01:32:45.414Z,4.00
2018-04-08T01:33:45.423Z,4.00
2018-04-08T01:34:46.362Z,4.00
2018-04-08T01:35:45.435Z,4.00
2018-04-08T01:36:45.430Z,4.00
2018-04-08T01:37:45.437Z,4.00
2018-04-08T01:38:45.439Z,4.00
2018-04-08T01:39:45.449Z,4.00
2018-04-08T01:40:45.543Z,4.00
2018-04-08T01:41:45.471Z,4.00
2018-04-08T01:42:45.466Z,4.00
2018-04-08T01:43:45.473Z,4.00
2018-04-08T01:44:45.466Z,4.00
2018-04-08T01:45:45.474Z,4.00
2018-04-08T01:46:45.484Z,4.00
2018-04-08T01:47:45.487Z,4.00
2018-04-08T01:48:45.492Z,4.00
2018-04-08T01:49:45.518Z,4.00
2018-04-08T01:50:45.505Z,4.00
2018-04-08T01:51:45.517Z,4.00
2018-04-08T01:52:45.518Z,4.00
2018-04-08T01:53:45.520Z,4.00
2018-04-08T01:54:45.518Z,4.00
2018-04-08T01:55:45.530Z,4.00
2018-04-08T01:56:45.527Z,4.00
2018-04-08T01:57:45.540Z,4.00
2018-04-08T01:58:45.542Z,4.00
2018-04-08T01:59:45.560Z,4.00
2018-04-08T02:00:45.548Z,4.00
2018-04-08T02:01:45.561Z,4.00
2018-04-08T02:02:45.562Z,4.00
2018-04-08T02:03:45.567Z,4.00
2018-04-08T02:04:45.574Z,4.00
2018-04-08T02:05:45.579Z,4.00
2018-04-08T02:06:45.582Z,4.00
2018-04-08T02:07:45.594Z,4.00
2018-04-08T02:08:45.590Z,4.00
2018-04-08T02:09:45.610Z,4.00
2018-04-08T02:10:45.599Z,4.00
2018-04-08T02:11:45.614Z,4.00
2018-04-08T02:12:45.609Z,4.00
2018-04-08T02:13:45.612Z,4.00
2018-04-08T02:14:45.620Z,4.00
2018-04-08T02:15:45.628Z,4.00
2018-04-08T02:16:45.630Z,4.00
2018-04-08T02:17:45.636Z,4.00
2018-04-08T02:18:45.644Z,4.00
2018-04-08T02:19:45.651Z,4.00
2018-04-08T02:20:45.653Z,4.00
2018-04-08T02:21:45.661Z,4.00
2018-04-08T02:22:46.376Z,4.00
2018-04-08T02:23:45.667Z,4.00
2018-04-08T02:24:45.672Z,4.00
2018-04-08T02:25:45.814Z,4.00
2018-04-08T02:26:46.020Z,4.00
2018-04-08T02:27:47.082Z,4.00
2018-04-08T02:28:45.695Z,4.00
2018-04-08T02:29:45.700Z,4.00
2018-04-08T02:30:45.699Z,4.00
2018-04-08T02:31:45.715Z,4.00
2018-04-08T02:32:45.722Z,4.00
2018-04-08T02:33:45.726Z,4.00
2018-04-08T02:34:45.735Z,4.00
2018-04-08T02:35:45.731Z,4.00
2018-04-08T02:36:45.740Z,4.00
2018-04-08T02:37:45.737Z,4.00
2018-04-08T02:38:45.750Z,4.00
2018-04-08T02:39:45.752Z,4.00
2018-04-08T02:40:45.755Z,4.00
2018-04-08T02:41:45.752Z,4.00
2018-04-08T02:42:45.761Z,4.00
2018-04-08T02:43:45.782Z,4.00
2018-04-08T02:44:45.769Z,4.00
2018-04-08T02:45:45.782Z,4.00
2018-04-08T02:46:45.782Z,4.00
2018-04-08T02:47:45.792Z,4.00
2018-04-08T02:48:45.798Z,4.00
2018-04-08T02:49:45.803Z,4.00
2018-04-08T02:50:45.797Z,4.00
2018-04-08T02:51:45.809Z,4.00
2018-04-08T02:52:45.812Z,4.00
2018-04-08T02:53:45.835Z,4.00
2018-04-08T02:54:45.822Z,4.00
2018-04-08T02:55:45.823Z,4.00
2018-04-08T02:56:45.830Z,4.00
2018-04-08T02:57:45.837Z,4.00
2018-04-08T02:58:45.843Z,4.00
2018-04-08T02:59:45.842Z,4.00
2018-04-08T03:00:45.856Z,4.00
2018-04-08T03:01:45.861Z,4.00
2018-04-08T03:02:45.860Z,4.00
2018-04-08T03:03:45.868Z,4.00
2018-04-08T03:04:45.882Z,4.00
2018-04-08T03:05:45.875Z,4.00
2018-04-08T03:06:45.876Z,4.00
2018-04-08T03:07:45.884Z,4.00
2018-04-08T03:08:45.895Z,4.00
2018-04-08T03:09:45.895Z,4.00
2018-04-08T03:10:45.902Z,4.00
2018-04-08T03:11:45.899Z,4.00
2018-04-08T03:12:45.909Z,4.00
2018-04-08T03:13:45.910Z,4.00
2018-04-08T03:14:45.918Z,4.00
2018-04-08T03:15:45.921Z,4.00
2018-04-08T03:16:45.931Z,4.00
2018-04-08T03:17:45.929Z,4.00
2018-04-08T03:18:45.933Z,4.00
2018-04-08T03:19:45.942Z,4.00
2018-04-08T03:20:45.952Z,4.00
2018-04-08T03:21:45.951Z,4.00
2018-04-08T03:22:45.965Z,4.00
2018-04-08T03:23:45.959Z,4.00
2018-04-08T03:24:45.966Z,4.00
2018-04-08T03:25:45.976Z,4.00
2018-04-08T03:26:45.969Z,4.00
2018-04-08T03:27:45.975Z,4.00
2018-04-08T03:28:45.984Z,4.00
2018-04-08T03:29:45.989Z,4.00
2018-04-08T03:30:45.990Z,4.00
2018-04-08T03:31:45.996Z,4.00
2018-04-08T03:32:46.009Z,4.00
2018-04-08T03:33:46.015Z,4.00
2018-04-08T03:34:46.011Z,4.00
2018-04-08T03:35:46.021Z,4.00
2018-04-08T03:36:46.024Z,4.00
2018-04-08T03:37:46.027Z,4.00
2018-04-08T03:38:46.030Z,4.00
2018-04-08T03:39:46.039Z,4.00
2018-04-08T03:40:46.046Z,4.00
2018-04-08T03:41:46.049Z,4.00
2018-04-08T03:42:46.048Z,4.00
2018-04-08T03:43:46.050Z,4.00
2018-04-08T03:44:46.063Z,4.00
2018-04-08T03:45:46.068Z,4.00
2018-04-08T03:46:46.072Z,4.00
2018-04-08T03:47:46.075Z,4.00
2018-04-08T03:48:46.082Z,4.00
2018-04-08T03:49:46.087Z,4.00
2018-04-08T03:50:46.094Z,4.00
2018-04-08T03:51:46.102Z,4.00
2018-04-08T03:52:46.108Z,4.00
2018-04-08T03:53:46.107Z,4.00
2018-04-08T03:54:46.105Z,4.00
2018-04-08T03:55:46.111Z,4.00
2018-04-08T03:56:46.123Z,4.00
2018-04-08T03:57:46.126Z,4.00
2018-04-08T03:58:46.123Z,4.00
2018-04-08T03:59:46.132Z,4.00
2018-04-08T04:00:46.138Z,4.00
2018-04-08T04:01:46.142Z,4.00
2018-04-08T04:02:46.153Z,8.00
2018-04-08T04:03:46.146Z,4.00
2018-04-08T04:04:46.160Z,4.00
2018-04-08T04:05:46.166Z,4.00
2018-04-08T04:06:46.165Z,4.00
2018-04-08T04:07:46.173Z,4.00
2018-04-08T04:08:46.181Z,4.00
2018-04-08T04:09:46.180Z,4.00
2018-04-08T04:10:46.256Z,8.00
2018-04-08T04:11:46.206Z,8.00
2018-04-08T04:12:46.211Z,8.00
2018-04-08T04:13:46.214Z,4.00
2018-04-08T04:14:46.203Z,4.00
2018-04-08T04:15:46.210Z,4.00
2018-04-08T04:16:46.214Z,4.00
2018-04-08T04:17:46.224Z,4.00
2018-04-08T04:18:46.219Z,8.00
2018-04-08T04:19:46.237Z,8.00
2018-04-08T04:20:46.232Z,4.00
2018-04-08T04:21:46.240Z,8.00
2018-04-08T04:22:46.248Z,8.00
2018-04-08T04:23:46.246Z,8.00
2018-04-08T04:24:46.257Z,8.00
2018-04-08T04:25:46.258Z,8.00
2018-04-08T04:26:46.263Z,8.00
2018-04-08T04:27:46.269Z,12.00
2018-04-08T04:28:46.274Z,12.00
2018-04-08T04:29:46.280Z,12.00
2018-04-08T04:30:46.277Z,16.00
2018-04-08T04:31:46.290Z,12.00
2018-04-08T04:32:46.290Z,16.00
2018-04-08T04:33:46.298Z,16.00
2018-04-08T04:34:46.298Z,20.00
2018-04-08T04:35:46.313Z,24.00
2018-04-08T04:36:46.308Z,24.00
2018-04-08T04:37:46.352Z,32.00
2018-04-08T04:38:46.327Z,40.00
2018-04-08T04:39:46.322Z,40.00
2018-04-08T04:40:46.323Z,48.00
2018-04-08T04:41:46.329Z,52.00
2018-04-08T04:42:46.345Z,60.00
2018-04-08T04:43:46.344Z,68.00
2018-04-08T04:44:46.347Z,76.00
2018-04-08T04:45:46.354Z,84.00
2018-04-08T04:46:46.360Z,96.00
2018-04-08T04:47:46.368Z,104.00
2018-04-08T04:48:46.376Z,112.00
2018-04-08T04:49:46.376Z,128.00
2018-04-08T04:50:46.372Z,144.00
2018-04-08T04:51:46.392Z,156.00
2018-04-08T04:52:46.387Z,172.00
2018-04-08T04:53:46.394Z,188.00
2018-04-08T04:54:46.394Z,204.00
2018-04-08T04:55:46.410Z,228.00
2018-04-08T04:56:46.409Z,248.00
2018-04-08T04:57:46.414Z,276.00
2018-04-08T04:58:46.414Z,300.00
2018-04-08T04:59:46.424Z,332.00
2018-04-08T05:00:46.422Z,368.00
2018-04-08T05:01:46.439Z,400.00
2018-04-08T05:02:46.432Z,440.00
2018-04-08T05:03:46.489Z,480.00
2018-04-08T05:04:46.441Z,524.00
2018-04-08T05:05:46.455Z,564.00
2018-04-08T05:06:46.453Z,612.00
2018-04-08T05:07:46.460Z,660.00
2018-04-08T05:08:46.462Z,708.00
2018-04-08T05:09:46.473Z,752.00
2018-04-08T05:10:46.472Z,804.00
2018-04-08T05:11:46.481Z,856.00
2018-04-08T05:12:46.486Z,900.00
2018-04-08T05:13:46.485Z,956.00
2018-04-08T05:14:46.496Z,1016.00
2018-04-08T05:15:46.491Z,1076.00
2018-04-08T05:16:46.505Z,1136.00
2018-04-08T05:17:46.513Z,1200.00
2018-04-08T05:18:46.515Z,1260.00
2018-04-08T05:19:46.517Z,1324.00
2018-04-08T05:20:46.530Z,1392.00
2018-04-08T05:21:46.525Z,1456.00
2018-04-08T05:22:46.532Z,1512.00
2018-04-08T05:23:46.535Z,1576.00
2018-04-08T05:24:46.544Z,1636.00
2018-04-08T05:25:46.550Z,1704.00
2018-04-08T05:26:46.558Z,1776.00
2018-04-08T05:27:46.550Z,1844.00
2018-04-08T05:28:46.558Z,1916.00
2018-04-08T05:29:46.566Z,1984.00
2018-04-08T05:30:46.576Z,2052.00
2018-04-08T05:31:46.580Z,2116.00
2018-04-08T05:32:46.582Z,2184.00
2018-04-08T05:33:46.586Z,2256.00
2018-04-08T05:34:46.597Z,2328.00
2018-04-08T05:35:46.601Z,2392.00
2018-04-08T05:36:46.598Z,2460.00
2018-04-08T05:37:46.605Z,2520.00
2018-04-08T05:38:46.620Z,2564.00
2018-04-08T05:39:46.633Z,2620.00
2018-04-08T05:40:46.622Z,2672.00
2018-04-08T05:41:46.644Z,2728.00
2018-04-08T05:42:46.638Z,2788.00
2018-04-08T05:43:46.644Z,2836.00
2018-04-08T05:44:46.639Z,2876.00
2018-04-08T05:45:46.649Z,2904.00
2018-04-08T05:46:46.662Z,2924.00
2018-04-08T05:47:46.664Z,2916.00
2018-04-08T05:48:46.670Z,2892.00
2018-04-08T05:49:46.690Z,2848.00
2018-04-08T05:50:46.688Z,2800.00
2018-04-08T05:51:46.688Z,2740.00
2018-04-08T05:52:46.686Z,2688.00
2018-04-08T05:53:46.694Z,2628.00
2018-04-08T05:54:46.698Z,2572.00
2018-04-08T05:55:46.710Z,2516.00
2018-04-08T05:56:46.708Z,2468.00
2018-04-08T05:57:46.718Z,2428.00
2018-04-08T05:58:46.718Z,2384.00
2018-04-08T05:59:46.726Z,2332.00
2018-04-08T06:00:46.729Z,2256.00
2018-04-08T06:01:46.742Z,2216.00
2018-04-08T06:02:46.739Z,2100.00
2018-04-08T06:03:46.765Z,2056.00
2018-04-08T06:04:46.754Z,2024.00
2018-04-08T06:05:47.444Z,1996.00
2018-04-08T06:06:46.760Z,1964.00
2018-04-08T06:07:46.779Z,1928.00
2018-04-08T06:08:46.774Z,1888.00
2018-04-08T06:09:46.788Z,1856.00
2018-04-08T06:10:46.790Z,1828.00
2018-04-08T06:11:46.797Z,1804.00
2018-04-08T06:12:46.802Z,1788.00
2018-04-08T06:13:46.804Z,1776.00
2018-04-08T06:14:46.812Z,1772.00
2018-04-08T06:15:46.815Z,1780.00
2018-04-08T06:16:46.823Z,1788.00
2018-04-08T06:17:46.837Z,1808.00
2018-04-08T06:18:46.838Z,1824.00
2018-04-08T06:19:46.845Z,1844.00
2018-04-08T06:20:46.844Z,1868.00
2018-04-08T06:21:46.853Z,1896.00
2018-04-08T06:22:46.861Z,1928.00
2018-04-08T06:23:46.868Z,1948.00
2018-04-08T06:24:46.873Z,1968.00
2018-04-08T06:25:46.875Z,1972.00
2018-04-08T06:26:46.890Z,1988.00
2018-04-08T06:27:46.886Z,2000.00
2018-04-08T06:28:46.900Z,2012.00
2018-04-08T06:29:46.903Z,2024.00
2018-04-08T06:30:46.910Z,2040.00
2018-04-08T06:31:46.927Z,2052.00
2018-04-08T06:32:46.922Z,2072.00
2018-04-08T06:33:46.930Z,2092.00
2018-04-08T06:34:46.941Z,2120.00
2018-04-08T06:35:46.936Z,2156.00
2018-04-08T06:36:46.949Z,2192.00
2018-04-08T06:37:46.954Z,2236.00
2018-04-08T06:38:46.956Z,2292.00
2018-04-08T06:39:46.964Z,2356.00
2018-04-08T06:40:48.712Z,2424.00
2018-04-08T06:41:47.039Z,2504.00
2018-04-08T06:42:46.981Z,2580.00
2018-04-08T06:43:47.108Z,2664.00
2018-04-08T06:44:46.994Z,2748.00
2018-04-08T06:45:47.007Z,2840.00
2018-04-08T06:46:47.008Z,2924.00
2018-04-08T06:47:47.020Z,3016.00
2018-04-08T06:48:47.027Z,3100.00
2018-04-08T06:49:47.029Z,3192.00
2018-04-08T06:50:47.038Z,3280.00
2018-04-08T06:51:47.042Z,3372.00
2018-04-08T06:52:47.045Z,3476.00
2018-04-08T06:53:47.049Z,3604.00
2018-04-08T06:54:47.057Z,3688.00
2018-04-08T06:55:47.067Z,3760.00
2018-04-08T06:56:47.071Z,3812.00
2018-04-08T06:57:47.076Z,3824.00
2018-04-08T06:58:47.085Z,3816.00
2018-04-08T06:59:47.087Z,3796.00
2018-04-08T07:00:47.097Z,3816.00
2018-04-08T07:01:47.098Z,3864.00
2018-04-08T07:02:47.108Z,3932.00
2018-04-08T07:03:47.118Z,4032.00
2018-04-08T07:04:47.120Z,4160.00
2018-04-08T07:05:47.128Z,4300.00
2018-04-08T07:06:47.134Z,4452.00
2018-04-08T07:07:47.134Z,4612.00
2018-04-08T07:08:47.148Z,4780.00
2018-04-08T07:09:47.158Z,4972.00
2018-04-08T07:10:47.160Z,5240.00
2018-04-08T07:12:40.217Z,5736.00
2018-04-08T07:13:40.150Z,5572.00
2018-04-08T07:15:33.143Z,5692.00
2018-04-08T07:16:33.105Z,5864.00
2018-04-08T07:18:26.143Z,7576.00
2018-04-08T07:19:26.638Z,6248.00
2018-04-08T07:21:22.223Z,6072.00
2018-04-08T07:22:21.594Z,6216.00
2018-04-08T07:24:13.217Z,6716.00
2018-04-08T07:25:12.032Z,6684.00
2018-04-08T07:27:20.454Z,6968.00
2018-04-08T07:28:04.978Z,7128.00
2018-04-08T07:29:59.403Z,7448.00
2018-04-08T07:30:58.055Z,7764.00
2018-04-08T07:32:52.373Z,8948.00
2018-04-08T07:33:51.910Z,8488.00
2018-04-08T07:35:48.052Z,9160.00
2018-04-08T07:36:45.008Z,9332.00
2018-04-08T07:38:37.996Z,9420.00
2018-04-08T07:39:38.684Z,9688.00
2018-04-08T07:41:31.148Z,9960.00
2018-04-08T07:42:30.736Z,10496.00
2018-04-08T07:44:24.250Z,16992.00
2018-04-08T07:45:24.207Z,15056.00
2018-04-08T07:47:24.844Z,28320.00
2018-04-08T07:48:16.626Z,37824.00
2018-04-08T07:50:10.147Z,38624.00
2018-04-08T07:51:10.356Z,40640.00
2018-04-08T07:53:03.873Z,38976.00
2018-04-08T07:54:02.552Z,30272.00
2018-04-08T07:55:55.970Z,37280.00
2018-04-08T07:56:55.915Z,37088.00
2018-04-08T07:58:49.939Z,22944.00
2018-04-08T07:59:48.922Z,36704.00
2018-04-08T08:01:43.364Z,24512.00
2018-04-08T08:02:44.254Z,27520.00
2018-04-08T08:04:35.912Z,22752.00
2018-04-08T08:05:34.763Z,21088.00
2018-04-08T08:07:29.334Z,15016.00
2018-04-08T08:08:27.332Z,18016.00
2018-04-08T08:10:20.805Z,23360.00
2018-04-08T08:11:20.224Z,19584.00
2018-04-08T08:13:13.211Z,27488.00
2018-04-08T08:14:13.190Z,20736.00
2018-04-08T08:16:06.250Z,18752.00
2018-04-08T08:17:06.139Z,21120.00
2018-04-08T08:18:59.640Z,40032.00
2018-04-08T08:19:59.098Z,37824.00
2018-04-08T08:21:52.058Z,42304.00
2018-04-08T08:22:52.064Z,27200.00
2018-04-08T08:24:45.141Z,32448.00
2018-04-08T08:25:45.017Z,39168.00
2018-04-08T08:27:37.990Z,28576.00
2018-04-08T08:28:38.000Z,41792.00
2018-04-08T08:30:31.007Z,42336.00
2018-04-08T08:31:30.928Z,28640.00
2018-04-08T08:33:26.941Z,25824.00
2018-04-08T08:34:23.904Z,24896.00
2018-04-08T08:36:16.866Z,36320.00
2018-04-08T08:37:17.347Z,41184.00
2018-04-08T08:39:13.877Z,31904.00
2018-04-08T08:40:10.641Z,43744.00
2018-04-08T08:42:03.612Z,31232.00
2018-04-08T08:43:04.108Z,19136.00
2018-04-08T08:44:58.547Z,21056.00
2018-04-08T08:45:56.533Z,35040.00
2018-04-08T08:47:53.195Z,45120.00
2018-04-08T08:50:03.692Z,38592.00
2018-04-08T08:51:02.527Z,45024.00
2018-04-08T08:53:15.484Z,47104.00
2018-04-08T08:55:20.677Z,47488.00
2018-04-08T09:01:06.523Z,46464.00
2018-04-08T09:06:16.323Z,41568.00
2018-04-08T09:06:49.373Z,43264.00
2018-04-08T09:09:11.970Z,34016.00
2018-04-08T09:11:34.973Z,49184.00
2018-04-08T09:15:47.875Z,52800.00
2018-04-08T09:17:18.361Z,43584.00
2018-04-08T09:18:18.305Z,41696.00
2018-04-08T09:20:13.790Z,35488.00
2018-04-08T09:22:32.357Z,32896.00
2018-04-08T09:24:46.553Z,36448.00
2018-04-08T09:28:52.056Z,26208.00
2018-04-08T09:33:51.152Z,21024.00
2018-04-08T09:34:38.162Z,24032.00
2018-04-08T09:36:30.750Z,26272.00
2018-04-08T09:37:37.384Z,30656.00
2018-04-08T09:39:26.325Z,25472.00
2018-04-08T09:40:21.128Z,25056.00
2018-04-08T09:42:16.080Z,25440.00
2018-04-08T09:43:14.081Z,26176.00
2018-04-08T09:45:08.050Z,35968.00
2018-04-08T09:46:09.540Z,28064.00
2018-04-08T09:48:03.008Z,34432.00
2018-04-08T09:49:00.527Z,39424.00
2018-04-08T09:50:57.479Z,24800.00
2018-04-08T09:51:52.954Z,32480.00
2018-04-08T09:53:45.930Z,29408.00
2018-04-08T09:54:45.907Z,39232.00
2018-04-08T09:56:39.094Z,74944.00
2018-04-08T09:57:38.975Z,88512.00
2018-04-08T09:59:32.443Z,63904.00
2018-04-08T10:00:31.947Z,79168.00
2018-04-08T10:02:27.598Z,73856.00
2018-04-08T10:03:25.407Z,73952.00
2018-04-08T10:05:17.878Z,70816.00
2018-04-08T10:06:17.864Z,68736.00
2018-04-08T10:08:10.852Z,65792.00
2018-04-08T10:09:11.314Z,64576.00
2018-04-08T10:11:07.039Z,60128.00
2018-04-08T10:12:06.302Z,60192.00
2018-04-08T10:13:57.736Z,60256.00
2018-04-08T10:14:57.735Z,49280.00
2018-04-08T10:16:51.310Z,46880.00
2018-04-08T10:17:49.793Z,47232.00
2018-04-08T10:19:42.779Z,19392.00
2018-04-08T10:20:44.267Z,18336.00
2018-04-08T10:22:35.762Z,17792.00
2018-04-08T10:23:35.690Z,20416.00
2018-04-08T10:25:28.654Z,16028.00
2018-04-08T10:26:28.650Z,20672.00
2018-04-08T10:28:25.687Z,27328.00
2018-04-08T10:29:25.738Z,28832.00
2018-04-08T10:31:18.666Z,23616.00
2018-04-08T10:32:18.656Z,22528.00
2018-04-08T10:34:11.595Z,16448.00
2018-04-08T10:35:11.608Z,18336.00
2018-04-08T10:37:04.605Z,17856.00
2018-04-08T10:38:05.076Z,18624.00
2018-04-08T10:39:57.608Z,18944.00
2018-04-08T10:40:58.467Z,17728.00
2018-04-08T10:42:50.697Z,15720.00
2018-04-08T10:43:50.586Z,13536.00
2018-04-08T10:45:43.592Z,11992.00
2018-04-08T10:46:43.539Z,11812.00
2018-04-08T10:48:36.618Z,11636.00
2018-04-08T10:49:36.511Z,11488.00
2018-04-08T10:50:36.526Z,11428.00
2018-04-08T10:51:36.545Z,11556.00
2018-04-08T10:52:36.586Z,11656.00
2018-04-08T10:53:36.575Z,11508.00
2018-04-08T10:54:36.594Z,11412.00
2018-04-08T10:55:36.657Z,11456.00
2018-04-08T10:56:36.632Z,11528.00
2018-04-08T10:57:36.649Z,11712.00
2018-04-08T10:58:36.674Z,12032.00
2018-04-08T10:59:36.689Z,12364.00
2018-04-08T11:00:36.703Z,12884.00
2018-04-08T11:01:36.729Z,13228.00
2018-04-08T11:02:36.741Z,13444.00
2018-04-08T11:03:36.815Z,13072.00
2018-04-08T11:04:36.795Z,13028.00
2018-04-08T11:05:36.795Z,12536.00
2018-04-08T11:06:36.810Z,12492.00
2018-04-08T11:07:36.840Z,12536.00
2018-04-08T11:08:36.856Z,12424.00
2018-04-08T11:09:36.862Z,11960.00
2018-04-08T11:10:36.904Z,11864.00
2018-04-08T11:11:36.930Z,11832.00
2018-04-08T11:12:37.030Z,11960.00
2018-04-08T11:13:36.934Z,12332.00
2018-04-08T11:14:36.960Z,13048.00
2018-04-08T11:15:36.979Z,14028.00
2018-04-08T11:16:37.005Z,16832.00
2018-04-08T11:17:37.310Z,19616.00
2018-04-08T11:18:37.082Z,21728.00
2018-04-08T11:19:37.060Z,23200.00
2018-04-08T11:20:37.068Z,23680.00
2018-04-08T11:21:37.075Z,23520.00
2018-04-08T11:22:37.104Z,23328.00
2018-04-08T11:23:37.140Z,23648.00
2018-04-08T11:24:37.184Z,23872.00
2018-04-08T11:25:37.163Z,23648.00
2018-04-08T11:26:37.285Z,23392.00
2018-04-08T11:27:37.200Z,23008.00
2018-04-08T11:28:37.231Z,22816.00
2018-04-08T11:29:37.228Z,22560.00
2018-04-08T11:30:37.250Z,22240.00
2018-04-08T11:31:37.336Z,22112.00
2018-04-08T11:32:37.320Z,21856.00
2018-04-08T11:33:37.317Z,18816.00
2018-04-08T11:34:37.356Z,21216.00
2018-04-08T11:35:37.420Z,21056.00
2018-04-08T11:36:37.382Z,20544.00
2018-04-08T11:37:37.406Z,17216.00
2018-04-08T11:38:37.397Z,19616.00
2018-04-08T11:39:37.418Z,15896.00
2018-04-08T11:40:37.454Z,15224.00
2018-04-08T11:41:37.498Z,17952.00
2018-04-08T11:42:37.528Z,19584.00
2018-04-08T11:43:37.517Z,19840.00
2018-04-08T11:44:37.519Z,19264.00
2018-04-08T11:45:37.533Z,19488.00
2018-04-08T11:46:37.575Z,18688.00
2018-04-08T11:47:37.580Z,18944.00
2018-04-08T11:48:37.606Z,18496.00
2018-04-08T11:49:37.616Z,16608.00
2018-04-08T11:50:37.642Z,17184.00
2018-04-08T11:51:37.664Z,18688.00
2018-04-08T11:52:37.717Z,18400.00
2018-04-08T11:53:37.707Z,18304.00
2018-04-08T11:54:37.709Z,13364.00
2018-04-08T11:55:37.727Z,11900.00
2018-04-08T11:56:37.768Z,11408.00
2018-04-08T11:57:37.778Z,12124.00
2018-04-08T11:58:37.798Z,11856.00
2018-04-08T11:59:37.826Z,11556.00
2018-04-08T12:00:37.828Z,11412.00
2018-04-08T12:01:37.846Z,11916.00
2018-04-08T12:02:37.862Z,12528.00
2018-04-08T12:03:37.919Z,12552.00
2018-04-08T12:04:37.909Z,12560.00
2018-04-08T12:05:37.934Z,12052.00
2018-04-08T12:06:37.939Z,12068.00
2018-04-08T12:07:37.954Z,12368.00
2018-04-08T12:08:37.984Z,12708.00
2018-04-08T12:09:37.994Z,13284.00
2018-04-08T12:10:38.017Z,13148.00
2018-04-08T12:11:38.035Z,13756.00
2018-04-08T12:12:38.045Z,13648.00
2018-04-08T12:13:38.061Z,13560.00
2018-04-08T12:14:38.090Z,13332.00
2018-04-08T12:15:38.101Z,13104.00
2018-04-08T12:16:38.123Z,12884.00
2018-04-08T12:17:38.138Z,12584.00
2018-04-08T12:18:38.157Z,12416.00
2018-04-08T12:19:38.170Z,12272.00
2018-04-08T12:20:38.235Z,12064.00
2018-04-08T12:21:38.209Z,11924.00
2018-04-08T12:22:38.221Z,11772.00
2018-04-08T12:23:38.244Z,11644.00
2018-04-08T12:24:38.257Z,11500.00
2018-04-08T12:25:38.271Z,11352.00
2018-04-08T12:26:38.293Z,11432.00
2018-04-08T12:27:38.308Z,11396.00
2018-04-08T12:28:38.332Z,11360.00
2018-04-08T12:29:38.338Z,11156.00
2018-04-08T12:30:38.362Z,11288.00
2018-04-08T12:31:38.413Z,11488.00
2018-04-08T12:32:38.392Z,11516.00
2018-04-08T12:33:38.410Z,11340.00
2018-04-08T12:34:38.431Z,10936.00
2018-04-08T12:35:38.971Z,10636.00
2018-04-08T12:36:38.462Z,10520.00
2018-04-08T12:37:38.478Z,11028.00
2018-04-08T12:38:38.489Z,10992.00
2018-04-08T12:39:38.516Z,10848.00
2018-04-08T12:40:38.525Z,10708.00
2018-04-08T12:41:38.535Z,10556.00
2018-04-08T12:42:38.559Z,10408.00
2018-04-08T12:43:38.573Z,10320.00
2018-04-08T12:44:38.593Z,10360.00
2018-04-08T12:45:38.599Z,10288.00
2018-04-08T12:46:38.629Z,10216.00
2018-04-08T12:47:38.640Z,10076.00
2018-04-08T12:48:38.652Z,9884.00
2018-04-08T12:49:43.564Z,9708.00
2018-04-08T12:50:38.686Z,9648.00
2018-04-08T12:52:32.191Z,9320.00
2018-04-08T12:53:31.719Z,9016.00
2018-04-08T12:55:25.198Z,8952.00
2018-04-08T12:56:24.769Z,8764.00
2018-04-08T12:58:17.734Z,8560.00
2018-04-08T12:59:17.717Z,8616.00
2018-04-08T13:01:10.701Z,8288.00
2018-04-08T13:02:10.689Z,8104.00
2018-04-08T13:04:03.633Z,8044.00
2018-04-08T13:05:03.637Z,8020.00
2018-04-08T13:06:56.619Z,7984.00
2018-04-08T13:07:56.598Z,7908.00
2018-04-08T13:08:56.605Z,7712.00
2018-04-08T13:09:56.622Z,7672.00
2018-04-08T13:10:56.634Z,7680.00
2018-04-08T13:11:56.658Z,7864.00
2018-04-08T13:12:56.670Z,7764.00
2018-04-08T13:13:56.681Z,7528.00
2018-04-08T13:14:56.703Z,7592.00
2018-04-08T13:15:56.710Z,7552.00
2018-04-08T13:16:56.733Z,7636.00
2018-04-08T13:17:56.745Z,7712.00
2018-04-08T13:18:56.780Z,7672.00
2018-04-08T13:19:56.775Z,7732.00
2018-04-08T13:20:56.792Z,7560.00
2018-04-08T13:21:56.830Z,7444.00
2018-04-08T13:22:56.813Z,7432.00
2018-04-08T13:23:56.863Z,7324.00
2018-04-08T13:24:56.852Z,7300.00
2018-04-08T13:25:56.856Z,7208.00
2018-04-08T13:26:56.873Z,7184.00
2018-04-08T13:27:56.891Z,7128.00
2018-04-08T13:28:56.898Z,7072.00
2018-04-08T13:29:56.923Z,6964.00
2018-04-08T13:30:56.934Z,7000.00
2018-04-08T13:31:56.952Z,7012.00
2018-04-08T13:33:56.981Z,6976.00
2018-04-08T13:34:56.991Z,6972.00
2018-04-08T13:35:56.999Z,6888.00
2018-04-08T13:36:57.020Z,6948.00
2018-04-08T13:37:57.038Z,6896.00
2018-04-08T13:38:57.063Z,6696.00
2018-04-08T13:39:57.069Z,6700.00
2018-04-08T13:40:57.073Z,6588.00
2018-04-08T13:41:57.090Z,6448.00
2018-04-08T13:42:57.100Z,6124.00
2018-04-08T13:43:57.112Z,6196.00
2018-04-08T13:44:57.137Z,6124.00
2018-04-08T13:45:57.155Z,6028.00
2018-04-08T13:46:57.168Z,5920.00
2018-04-08T13:47:57.177Z,5812.00
2018-04-08T13:48:57.187Z,5776.00
2018-04-08T13:49:57.207Z,5512.00
2018-04-08T13:50:57.216Z,4952.00
2018-04-08T13:51:57.227Z,4792.00
2018-04-08T13:52:57.251Z,4632.00
2018-04-08T13:53:57.259Z,4616.00